sensor_id;sensor_type;location;lat;lon;timestamp;pressure;altitude;pressure_sealevel;temperature;humidity
51928;BME280;37953;52.806;18.270;2023-04-25T00:00:05;99384.25;;;14.16;100.00
51928;BME280;37953;52.806;18.270;2023-04-25T00:02:52;99387.75;;;14.15;100.00
51928;BME280;37953;52.806;18.270;2023-04-25T00:05:18;99393.88;;;14.14;100.00
51928;BME280;37953;52.806;18.270;2023-04-25T00:07:45;99393.06;;;14.12;100.00
51928;BME280;37953;52.806;18.270;2023-04-25T00:10:11;99384.44;;;14.10;100.00
51928;BME280;37953;52.806;18.270;2023-04-25T00:12:37;99387.88;;;14.11;100.00
51928;BME280;37953;52.806;18.270;2023-04-25T00:15:11;99383.59;;;14.10;100.00
51928;BME280;37953;52.806;18.270;2023-04-25T00:17:37;99381.03;;;14.07;100.00
51928;BME280;37953;52.806;18.270;2023-04-25T00:20:09;99376.75;;;14.05;100.00
51928;BME280;37953;52.806;18.270;2023-04-25T00:22:35;99378.53;;;14.03;100.00
51928;BME280;37953;52.806;18.270;2023-04-25T00:25:04;99381.16;;;14.03;100.00
51928;BME280;37953;52.806;18.270;2023-04-25T00:27:30;99375.97;;;14.02;100.00
51928;BME280;37953;52.806;18.270;2023-04-25T00:29:56;99376.97;;;13.96;100.00
51928;BME280;37953;52.806;18.270;2023-04-25T00:32:22;99380.44;;;13.97;100.00
51928;BME280;37953;52.806;18.270;2023-04-25T00:34:48;99377.91;;;13.95;100.00
51928;BME280;37953;52.806;18.270;2023-04-25T00:37:14;99378.03;;;13.91;100.00
51928;BME280;37953;52.806;18.270;2023-04-25T00:39:40;99380.66;;;13.91;100.00
51928;BME280;37953;52.806;18.270;2023-04-25T00:42:06;99392.06;;;13.87;100.00
51928;BME280;37953;52.806;18.270;2023-04-25T00:44:34;99388.59;;;13.86;100.00
51928;BME280;37953;52.806;18.270;2023-04-25T00:47:02;99388.72;;;13.81;100.00
51928;BME280;37953;52.806;18.270;2023-04-25T00:49:36;99390.47;;;13.81;100.00
51928;BME280;37953;52.806;18.270;2023-04-25T00:52:03;99393.25;;;13.75;100.00
51928;BME280;37953;52.806;18.270;2023-04-25T00:54:29;99394.16;;;13.74;100.00
51928;BME280;37953;52.806;18.270;2023-04-25T00:56:56;99394.97;;;13.76;100.00
51928;BME280;37953;52.806;18.270;2023-04-25T00:59:22;99398.47;;;13.75;100.00
51928;BME280;37953;52.806;18.270;2023-04-25T01:01:56;99391.63;;;13.71;100.00
51928;BME280;37953;52.806;18.270;2023-04-25T01:04:22;99397.75;;;13.70;100.00
51928;BME280;37953;52.806;18.270;2023-04-25T01:06:49;99399.59;;;13.66;100.00
51928;BME280;37953;52.806;18.270;2023-04-25T01:09:15;99390.94;;;13.64;100.00
51928;BME280;37953;52.806;18.270;2023-04-25T01:11:41;99393.56;;;13.62;100.00
51928;BME280;37953;52.806;18.270;2023-04-25T01:14:07;99395.44;;;13.59;100.00
51928;BME280;37953;52.806;18.270;2023-04-25T01:16:34;99400.72;;;13.56;100.00
51928;BME280;37953;52.806;18.270;2023-04-25T01:19:00;99395.66;;;13.50;100.00
51928;BME280;37953;52.806;18.270;2023-04-25T01:21:26;99403.44;;;13.53;100.00
51928;BME280;37953;52.806;18.270;2023-04-25T01:23:54;99400.88;;;13.50;100.00
51928;BME280;37953;52.806;18.270;2023-04-25T01:26:22;99401.78;;;13.49;100.00
51928;BME280;37953;52.806;18.270;2023-04-25T01:28:48;99406.19;;;13.47;100.00
51928;BME280;37953;52.806;18.270;2023-04-25T01:31:15;99407.16;;;13.42;100.00
51928;BME280;37953;52.806;18.270;2023-04-25T01:33:42;99411.69;;;13.36;100.00
51928;BME280;37953;52.806;18.270;2023-04-25T01:36:08;99414.31;;;13.36;100.00
51928;BME280;37953;52.806;18.270;2023-04-25T01:38:35;99415.38;;;13.27;100.00
51928;BME280;37953;52.806;18.270;2023-04-25T01:41:01;99417.97;;;13.27;100.00
51928;BME280;37953;52.806;18.270;2023-04-25T01:43:27;99424.97;;;13.25;100.00
51928;BME280;37953;52.806;18.270;2023-04-25T01:45:53;99425.97;;;13.19;100.00
51928;BME280;37953;52.806;18.270;2023-04-25T01:48:19;99420.75;;;13.19;100.00
51928;BME280;37953;52.806;18.270;2023-04-25T01:50:45;99421.81;;;13.12;100.00
51928;BME280;37953;52.806;18.270;2023-04-25T01:53:12;99429.56;;;13.14;100.00
51928;BME280;37953;52.806;18.270;2023-04-25T01:55:39;99431.44;;;13.09;100.00
51928;BME280;37953;52.806;18.270;2023-04-25T01:58:05;99428.91;;;13.06;100.00
51928;BME280;37953;52.806;18.270;2023-04-25T02:00:36;99418.56;;;13.02;100.00
51928;BME280;37953;52.806;18.270;2023-04-25T02:03:04;99413.41;;;12.99;100.00
51928;BME280;37953;52.806;18.270;2023-04-25T02:05:42;99419.53;;;12.98;100.00
51928;BME280;37953;52.806;18.270;2023-04-25T02:08:09;99419.66;;;12.92;100.00
51928;BME280;37953;52.806;18.270;2023-04-25T02:10:35;99415.50;;;12.85;100.00
51928;BME280;37953;52.806;18.270;2023-04-25T02:13:01;99419.03;;;12.82;100.00
51928;BME280;37953;52.806;18.270;2023-04-25T02:15:27;99415.66;;;12.79;100.00
51928;BME280;37953;52.806;18.270;2023-04-25T02:17:53;99423.41;;;12.80;100.00
51928;BME280;37953;52.806;18.270;2023-04-25T02:20:24;99430.47;;;12.77;100.00
51928;BME280;37953;52.806;18.270;2023-04-25T02:22:50;99420.16;;;12.72;100.00
51928;BME280;37953;52.806;18.270;2023-04-25T02:25:17;99430.59;;;12.71;100.00
51928;BME280;37953;52.806;18.270;2023-04-25T02:27:46;99434.19;;;12.65;100.00
51928;BME280;37953;52.806;18.270;2023-04-25T02:30:12;99432.50;;;12.64;100.00
51928;BME280;37953;52.806;18.270;2023-04-25T02:32:39;99431.69;;;12.60;100.00
51928;BME280;37953;52.806;18.270;2023-04-25T02:35:06;99442.19;;;12.57;100.00
51928;BME280;37953;52.806;18.270;2023-04-25T02:37:33;99441.41;;;12.54;100.00
51928;BME280;37953;52.806;18.270;2023-04-25T02:40:05;99439.75;;;12.50;100.00
51928;BME280;37953;52.806;18.270;2023-04-25T02:42:32;99441.53;;;12.46;100.00
51928;BME280;37953;52.806;18.270;2023-04-25T02:44:58;99443.31;;;12.44;100.00
51928;BME280;37953;52.806;18.270;2023-04-25T02:47:24;99448.63;;;12.39;100.00
51928;BME280;37953;52.806;18.270;2023-04-25T02:49:50;99446.97;;;12.37;100.00
51928;BME280;37953;52.806;18.270;2023-04-25T02:52:16;99447.00;;;12.34;100.00
51928;BME280;37953;52.806;18.270;2023-04-25T02:54:42;99445.34;;;12.31;100.00
51928;BME280;37953;52.806;18.270;2023-04-25T02:57:08;99441.06;;;12.27;100.00
51928;BME280;37953;52.806;18.270;2023-04-25T02:59:34;99437.69;;;12.24;100.00
51928;BME280;37953;52.806;18.270;2023-04-25T03:02:00;99449.00;;;12.22;100.00
51928;BME280;37953;52.806;18.270;2023-04-25T03:04:27;99444.72;;;12.18;100.00
51928;BME280;37953;52.806;18.270;2023-04-25T03:06:53;99445.66;;;12.16;100.00
51928;BME280;37953;52.806;18.270;2023-04-25T03:09:19;99442.25;;;12.12;100.00
51928;BME280;37953;52.806;18.270;2023-04-25T03:11:45;99449.22;;;12.10;100.00
51928;BME280;37953;52.806;18.270;2023-04-25T03:14:12;99441.50;;;12.07;100.00
51928;BME280;37953;52.806;18.270;2023-04-25T03:16:38;99444.13;;;12.04;100.00
51928;BME280;37953;52.806;18.270;2023-04-25T03:19:05;99441.63;;;12.01;100.00
51928;BME280;37953;52.806;18.270;2023-04-25T03:21:32;99442.56;;;11.95;100.00
51928;BME280;37953;52.806;18.270;2023-04-25T03:23:59;99447.84;;;11.94;100.00
51928;BME280;37953;52.806;18.270;2023-04-25T03:54:58;99466.34;;;11.75;100.00
51928;BME280;37953;52.806;18.270;2023-04-25T03:57:25;99478.56;;;11.70;100.00
51928;BME280;37953;52.806;18.270;2023-04-25T03:59:50;99482.94;;;11.68;100.00
51928;BME280;37953;52.806;18.270;2023-04-25T04:02:17;99487.31;;;11.66;100.00
51928;BME280;37953;52.806;18.270;2023-04-25T04:04:43;99481.31;;;11.63;100.00
51928;BME280;37953;52.806;18.270;2023-04-25T04:07:10;99485.72;;;11.59;100.00
51928;BME280;37953;52.806;18.270;2023-04-25T04:09:35;99486.63;;;11.56;100.00
51928;BME280;37953;52.806;18.270;2023-04-25T04:12:02;99485.81;;;11.54;100.00
51928;BME280;37953;52.806;18.270;2023-04-25T04:14:28;99491.88;;;11.53;100.00
51928;BME280;37953;52.806;18.270;2023-04-25T04:17:00;99491.03;;;11.53;100.00
51928;BME280;37953;52.806;18.270;2023-04-25T04:19:26;99488.41;;;11.53;100.00
51928;BME280;37953;52.806;18.270;2023-04-25T04:21:52;99485.88;;;11.50;100.00
51928;BME280;37953;52.806;18.270;2023-04-25T04:24:18;99482.44;;;11.48;100.00
51928;BME280;37953;52.806;18.270;2023-04-25T04:26:44;99491.13;;;11.47;100.00
51928;BME280;37953;52.806;18.270;2023-04-25T04:29:11;99496.38;;;11.45;100.00
51928;BME280;37953;52.806;18.270;2023-04-25T04:31:37;99492.94;;;11.43;100.00
51928;BME280;37953;52.806;18.270;2023-04-25T04:34:03;99497.22;;;11.44;100.00
51928;BME280;37953;52.806;18.270;2023-04-25T04:36:29;99503.28;;;11.45;100.00
51928;BME280;37953;52.806;18.270;2023-04-25T04:38:55;99496.38;;;11.44;100.00
51928;BME280;37953;52.806;18.270;2023-04-25T04:41:22;99499.00;;;11.42;100.00
51928;BME280;37953;52.806;18.270;2023-04-25T04:43:48;99503.38;;;11.40;100.00
51928;BME280;37953;52.806;18.270;2023-04-25T04:46:14;99507.69;;;11.41;100.00
51928;BME280;37953;52.806;18.270;2023-04-25T04:48:40;99506.81;;;11.40;100.00
51928;BME280;37953;52.806;18.270;2023-04-25T04:51:06;99504.25;;;11.39;100.00
51928;BME280;37953;52.806;18.270;2023-04-25T04:53:32;99511.19;;;11.38;100.00
51928;BME280;37953;52.806;18.270;2023-04-25T04:55:58;99512.09;;;11.36;100.00
51928;BME280;37953;52.806;18.270;2023-04-25T04:58:24;99507.78;;;11.35;100.00
51928;BME280;37953;52.806;18.270;2023-04-25T05:00:50;99511.25;;;11.35;100.00
51928;BME280;37953;52.806;18.270;2023-04-25T05:03:16;99512.94;;;11.36;100.00
51928;BME280;37953;52.806;18.270;2023-04-25T05:05:42;99513.84;;;11.35;100.00
51928;BME280;37953;52.806;18.270;2023-04-25T05:08:08;99519.88;;;11.37;100.00
51928;BME280;37953;52.806;18.270;2023-04-25T05:10:34;99518.97;;;11.40;100.00
51928;BME280;37953;52.806;18.270;2023-04-25T05:12:59;99511.16;;;11.41;100.00
51928;BME280;37953;52.806;18.270;2023-04-25T05:15:26;99513.75;;;11.41;100.00
51928;BME280;37953;52.806;18.270;2023-04-25T05:17:51;99517.19;;;11.44;100.00
51928;BME280;37953;52.806;18.270;2023-04-25T05:20:17;99505.94;;;11.43;100.00
51928;BME280;37953;52.806;18.270;2023-04-25T05:22:46;99508.53;;;11.43;100.00
51928;BME280;37953;52.806;18.270;2023-04-25T05:25:12;99524.09;;;11.45;100.00
51928;BME280;37953;52.806;18.270;2023-04-25T05:27:41;99511.13;;;11.43;100.00
51928;BME280;37953;52.806;18.270;2023-04-25T05:30:07;99516.34;;;11.41;100.00
51928;BME280;37953;52.806;18.270;2023-04-25T05:32:34;99523.31;;;11.41;100.00
51928;BME280;37953;52.806;18.270;2023-04-25T05:35:00;99526.78;;;11.40;100.00
51928;BME280;37953;52.806;18.270;2023-04-25T05:37:26;99521.56;;;11.41;100.00
51928;BME280;37953;52.806;18.270;2023-04-25T05:39:52;99516.38;;;11.40;100.00
51928;BME280;37953;52.806;18.270;2023-04-25T05:42:18;99521.56;;;11.40;100.00
51928;BME280;37953;52.806;18.270;2023-04-25T05:44:44;99517.28;;;11.39;100.00
51928;BME280;37953;52.806;18.270;2023-04-25T05:47:10;99521.59;;;11.38;100.00
51928;BME280;37953;52.806;18.270;2023-04-25T05:49:36;99522.47;;;11.37;100.00
51928;BME280;37953;52.806;18.270;2023-04-25T05:52:02;99518.16;;;11.36;100.00
51928;BME280;37953;52.806;18.270;2023-04-25T05:54:28;99517.28;;;11.39;100.00
51928;BME280;37953;52.806;18.270;2023-04-25T05:56:56;99523.31;;;11.41;100.00
51928;BME280;37953;52.806;18.270;2023-04-25T05:59:22;99527.59;;;11.42;100.00
51928;BME280;37953;52.806;18.270;2023-04-25T06:01:51;99528.41;;;11.47;100.00
51928;BME280;37953;52.806;18.270;2023-04-25T06:04:17;99522.25;;;11.51;100.00
51928;BME280;37953;52.806;18.270;2023-04-25T06:06:43;99519.63;;;11.53;100.00
51928;BME280;37953;52.806;18.270;2023-04-25T06:09:09;99518.72;;;11.55;100.00
51928;BME280;37953;52.806;18.270;2023-04-25T06:11:35;99526.47;;;11.58;100.00
51928;BME280;37953;52.806;18.270;2023-04-25T06:14:01;99523.88;;;11.58;100.00
51928;BME280;37953;52.806;18.270;2023-04-25T06:16:27;99533.44;;;11.58;100.00
51928;BME280;37953;52.806;18.270;2023-04-25T06:18:53;99528.22;;;11.58;100.00
51928;BME280;37953;52.806;18.270;2023-04-25T06:21:19;99532.53;;;11.59;100.00
51928;BME280;37953;52.806;18.270;2023-04-25T06:23:45;99534.31;;;11.57;100.00
51928;BME280;37953;52.806;18.270;2023-04-25T06:26:11;99533.47;;;11.56;100.00
51928;BME280;37953;52.806;18.270;2023-04-25T06:28:53;99541.25;;;11.56;100.00
51928;BME280;37953;52.806;18.270;2023-04-25T06:31:19;99528.22;;;11.58;100.00
51928;BME280;37953;52.806;18.270;2023-04-25T06:33:45;99531.72;;;11.57;100.00
51928;BME280;37953;52.806;18.270;2023-04-25T06:36:11;99534.38;;;11.54;100.00
51928;BME280;37953;52.806;18.270;2023-04-25T06:38:51;99521.38;;;11.54;100.00
51928;BME280;37953;52.806;18.270;2023-04-25T06:41:18;99530.88;;;11.53;100.00
51928;BME280;37953;52.806;18.270;2023-04-25T06:43:44;99517.88;;;11.53;100.00
51928;BME280;37953;52.806;18.270;2023-04-25T06:46:10;99523.06;;;11.55;100.00
51928;BME280;37953;52.806;18.270;2023-04-25T06:48:36;99524.75;;;11.57;100.00
51928;BME280;37953;52.806;18.270;2023-04-25T06:51:02;99513.47;;;11.58;100.00
51928;BME280;37953;52.806;18.270;2023-04-25T06:53:35;99517.75;;;11.63;100.00
51928;BME280;37953;52.806;18.270;2023-04-25T06:56:01;99528.06;;;11.69;100.00
51928;BME280;37953;52.806;18.270;2023-04-25T06:58:27;99527.13;;;11.71;100.00
51928;BME280;37953;52.806;18.270;2023-04-25T07:00:53;99527.06;;;11.74;100.00
51928;BME280;37953;52.806;18.270;2023-04-25T07:03:19;99522.69;;;11.78;100.00
51928;BME280;37953;52.806;18.270;2023-04-25T07:05:45;99526.13;;;11.78;100.00
51928;BME280;37953;52.806;18.270;2023-04-25T07:08:11;99533.09;;;11.78;100.00
51928;BME280;37953;52.806;18.270;2023-04-25T07:10:37;99526.97;;;11.80;100.00
51928;BME280;37953;52.806;18.270;2023-04-25T07:13:03;99528.66;;;11.83;100.00
51928;BME280;37953;52.806;18.270;2023-04-25T07:15:29;99524.25;;;11.87;100.00
51928;BME280;37953;52.806;18.270;2023-04-25T07:17:55;99529.47;;;11.90;100.00
51928;BME280;37953;52.806;18.270;2023-04-25T07:20:21;99526.78;;;11.93;100.00
51928;BME280;37953;52.806;18.270;2023-04-25T07:22:47;99523.31;;;11.94;100.00
51928;BME280;37953;52.806;18.270;2023-04-25T07:25:13;99523.25;;;11.95;100.00
51928;BME280;37953;52.806;18.270;2023-04-25T07:59:26;99543.78;;;12.12;100.00
51928;BME280;37953;52.806;18.270;2023-04-25T08:01:52;99555.97;;;12.10;100.00
51928;BME280;37953;52.806;18.270;2023-04-25T08:04:18;99554.25;;;12.11;100.00
51928;BME280;37953;52.806;18.270;2023-04-25T08:06:44;99555.97;;;12.10;100.00
51928;BME280;37953;52.806;18.270;2023-04-25T08:09:11;99550.75;;;12.12;100.00
51928;BME280;37953;52.806;18.270;2023-04-25T08:11:37;99551.59;;;12.12;100.00
51928;BME280;37953;52.806;18.270;2023-04-25T08:14:05;99550.66;;;12.16;100.00
51928;BME280;37953;52.806;18.270;2023-04-25T08:16:31;99546.38;;;12.14;100.00
51928;BME280;37953;52.806;18.270;2023-04-25T08:18:57;99546.38;;;12.12;100.00
51928;BME280;37953;52.806;18.270;2023-04-25T08:21:23;99556.78;;;12.14;100.00
51928;BME280;37953;52.806;18.270;2023-04-25T08:23:49;99548.94;;;12.15;100.00
51928;BME280;37953;52.806;18.270;2023-04-25T08:26:15;99542.00;;;12.16;100.00
51928;BME280;37953;52.806;18.270;2023-04-25T08:28:41;99549.78;;;12.17;100.00
51928;BME280;37953;52.806;18.270;2023-04-25T08:31:07;99544.50;;;12.20;100.00
51928;BME280;37953;52.806;18.270;2023-04-25T08:33:33;99546.19;;;12.23;100.00
51928;BME280;37953;52.806;18.270;2023-04-25T08:36:01;99544.47;;;12.24;100.00
51928;BME280;37953;52.806;18.270;2023-04-25T08:38:33;99550.50;;;12.26;100.00
51928;BME280;37953;52.806;18.270;2023-04-25T08:41:00;99551.34;;;12.28;100.00
51928;BME280;37953;52.806;18.270;2023-04-25T08:43:29;99555.66;;;12.27;100.00
51928;BME280;37953;52.806;18.270;2023-04-25T08:46:00;99550.44;;;12.29;100.00
51928;BME280;37953;52.806;18.270;2023-04-25T08:48:27;99549.56;;;12.30;100.00
51928;BME280;37953;52.806;18.270;2023-04-25T08:50:56;99553.00;;;12.30;100.00
51928;BME280;37953;52.806;18.270;2023-04-25T08:53:32;99548.59;;;12.34;100.00
51928;BME280;37953;52.806;18.270;2023-04-25T08:56:01;99558.09;;;12.36;100.00
51928;BME280;37953;52.806;18.270;2023-04-25T08:58:28;99558.88;;;12.40;100.00
51928;BME280;37953;52.806;18.270;2023-04-25T09:00:54;99555.38;;;12.42;100.00
51928;BME280;37953;52.806;18.270;2023-04-25T09:03:20;99556.22;;;12.45;100.00
51928;BME280;37953;52.806;18.270;2023-04-25T09:05:46;99566.56;;;12.48;100.00
51928;BME280;37953;52.806;18.270;2023-04-25T09:08:12;99563.03;;;12.50;100.00
51928;BME280;37953;52.806;18.270;2023-04-25T09:10:38;99569.91;;;12.54;100.00
51928;BME280;37953;52.806;18.270;2023-04-25T09:13:11;99579.41;;;12.57;100.00
51928;BME280;37953;52.806;18.270;2023-04-25T09:15:54;99575.84;;;12.61;100.00
51928;BME280;37953;52.806;18.270;2023-04-25T09:18:39;99578.44;;;12.61;100.00
51928;BME280;37953;52.806;18.270;2023-04-25T09:21:12;99572.47;;;12.57;100.00
51928;BME280;37953;52.806;18.270;2023-04-25T09:23:40;99584.66;;;12.55;100.00
51928;BME280;37953;52.806;18.270;2023-04-25T09:26:07;99577.72;;;12.54;100.00
51928;BME280;37953;52.806;18.270;2023-04-25T09:28:39;99587.22;;;12.57;100.00
51928;BME280;37953;52.806;18.270;2023-04-25T09:31:05;99590.75;;;12.54;100.00
51928;BME280;37953;52.806;18.270;2023-04-25T09:33:32;99587.28;;;12.54;100.00
51928;BME280;37953;52.806;18.270;2023-04-25T09:36:09;99592.53;;;12.52;100.00
51928;BME280;37953;52.806;18.270;2023-04-25T09:38:48;99587.31;;;12.52;100.00
51928;BME280;37953;52.806;18.270;2023-04-25T09:41:23;99585.63;;;12.50;100.00
51928;BME280;37953;52.806;18.270;2023-04-25T09:43:49;99588.31;;;12.45;100.00
51928;BME280;37953;52.806;18.270;2023-04-25T09:46:16;99600.53;;;12.43;100.00
51928;BME280;37953;52.806;18.270;2023-04-25T09:48:57;99589.19;;;12.44;100.00
51928;BME280;37953;52.806;18.270;2023-04-25T09:51:25;99598.78;;;12.42;100.00
51928;BME280;37953;52.806;18.270;2023-04-25T09:53:51;99597.94;;;12.41;100.00
51928;BME280;37953;52.806;18.270;2023-04-25T09:56:18;99604.88;;;12.42;100.00
51928;BME280;37953;52.806;18.270;2023-04-25T09:58:44;99603.13;;;12.43;100.00
51928;BME280;37953;52.806;18.270;2023-04-25T10:01:13;99600.50;;;12.45;100.00
51928;BME280;37953;52.806;18.270;2023-04-25T10:03:39;99602.19;;;12.46;100.00
51928;BME280;37953;52.806;18.270;2023-04-25T10:06:12;99603.94;;;12.47;100.00
51928;BME280;37953;52.806;18.270;2023-04-25T10:08:43;99603.09;;;12.45;100.00
51928;BME280;37953;52.806;18.270;2023-04-25T10:11:10;99599.56;;;12.47;100.00
51928;BME280;37953;52.806;18.270;2023-04-25T10:13:36;99609.94;;;12.49;100.00
51928;BME280;37953;52.806;18.270;2023-04-25T10:16:04;99610.78;;;12.51;100.00
51928;BME280;37953;52.806;18.270;2023-04-25T10:18:31;99611.69;;;12.50;100.00
51928;BME280;37953;52.806;18.270;2023-04-25T10:21:00;99607.28;;;12.53;100.00
51928;BME280;37953;52.806;18.270;2023-04-25T10:23:32;99614.16;;;12.56;100.00
51928;BME280;37953;52.806;18.270;2023-04-25T10:26:00;99602.00;;;12.56;100.00
51928;BME280;37953;52.806;18.270;2023-04-25T10:28:27;99607.19;;;12.58;99.70
51928;BME280;37953;52.806;18.270;2023-04-25T10:31:09;99608.78;;;12.63;100.00
51928;BME280;37953;52.806;18.270;2023-04-25T10:33:38;99609.50;;;12.72;100.00
51928;BME280;37953;52.806;18.270;2023-04-25T10:36:26;99613.00;;;12.71;100.00
51928;BME280;37953;52.806;18.270;2023-04-25T10:39:05;99609.50;;;12.72;100.00
51928;BME280;37953;52.806;18.270;2023-04-25T10:41:57;99608.56;;;12.76;99.43
51928;BME280;37953;52.806;18.270;2023-04-25T10:44:31;99601.56;;;12.78;100.00
51928;BME280;37953;52.806;18.270;2023-04-25T10:47:01;99601.53;;;12.81;99.46
51928;BME280;37953;52.806;18.270;2023-04-25T10:52:11;99608.34;;;12.87;89.03
51928;BME280;37953;52.806;18.270;2023-04-25T10:54:57;99605.69;;;12.90;90.72
51928;BME280;37953;52.806;18.270;2023-04-25T10:57:36;99615.25;;;12.89;88.81
51928;BME280;37953;52.806;18.270;2023-04-25T11:02:37;99617.06;;;12.86;90.65
51928;BME280;37953;52.806;18.270;2023-04-25T11:05:09;99620.53;;;12.84;90.89
51928;BME280;37953;52.806;18.270;2023-04-25T11:07:46;99611.03;;;12.82;92.08
51928;BME280;37953;52.806;18.270;2023-04-25T11:10:18;99611.06;;;12.80;92.36
51928;BME280;37953;52.806;18.270;2023-04-25T11:12:46;99613.72;;;12.79;92.20
51928;BME280;37953;52.806;18.270;2023-04-25T11:15:13;99612.03;;;12.76;89.96
51928;BME280;37953;52.806;18.270;2023-04-25T11:17:39;99618.13;;;12.75;88.68
51928;BME280;37953;52.806;18.270;2023-04-25T11:20:07;99613.78;;;12.76;89.98
51928;BME280;37953;52.806;18.270;2023-04-25T11:22:37;99618.75;;;12.88;90.13
51928;BME280;37953;52.806;18.270;2023-04-25T11:25:07;99606.72;;;12.81;87.57
51928;BME280;37953;52.806;18.270;2023-04-25T11:27:34;99619.59;;;12.89;87.51
51928;BME280;37953;52.806;18.270;2023-04-25T11:30:15;99619.66;;;12.86;91.21
51928;BME280;37953;52.806;18.270;2023-04-25T11:32:42;99624.03;;;12.85;91.91
51928;BME280;37953;52.806;18.270;2023-04-25T11:35:11;99623.16;;;12.84;92.79
51928;BME280;37953;52.806;18.270;2023-04-25T11:37:42;99599.97;;;12.71;95.95
51928;BME280;37953;52.806;18.270;2023-04-25T11:40:09;99620.50;;;12.86;99.24
51928;BME280;37953;52.806;18.270;2023-04-25T11:42:43;99617.09;;;12.82;99.86
51928;BME280;37953;52.806;18.270;2023-04-25T11:45:09;99616.34;;;12.77;98.44
51928;BME280;37953;52.806;18.270;2023-04-25T11:47:36;99622.38;;;12.81;98.17
51928;BME280;37953;52.806;18.270;2023-04-25T11:50:04;99627.47;;;12.87;98.46
51928;BME280;37953;52.806;18.270;2023-04-25T11:52:49;99632.69;;;12.87;95.72
51928;BME280;37953;52.806;18.270;2023-04-25T11:55:18;99623.28;;;12.78;97.35
51928;BME280;37953;52.806;18.270;2023-04-25T11:57:48;99624.19;;;12.76;95.35
51928;BME280;37953;52.806;18.270;2023-04-25T12:00:17;99626.75;;;12.79;96.08
51928;BME280;37953;52.806;18.270;2023-04-25T12:02:46;99632.91;;;12.76;95.65
51928;BME280;37953;52.806;18.270;2023-04-25T12:05:13;99633.75;;;12.75;98.72
51928;BME280;37953;52.806;18.270;2023-04-25T12:07:46;99626.84;;;12.74;98.13
51928;BME280;37953;52.806;18.270;2023-04-25T12:10:23;99625.06;;;12.76;96.68
51928;BME280;37953;52.806;18.270;2023-04-25T12:12:50;99623.31;;;12.77;97.29
51928;BME280;37953;52.806;18.270;2023-04-25T12:15:18;99621.59;;;12.76;96.47
51928;BME280;37953;52.806;18.270;2023-04-25T12:17:50;99629.38;;;12.77;97.76
51928;BME280;37953;52.806;18.270;2023-04-25T12:20:21;99630.19;;;12.81;95.07
51928;BME280;37953;52.806;18.270;2023-04-25T12:22:50;99620.72;;;12.75;95.73
51928;BME280;37953;52.806;18.270;2023-04-25T12:25:42;99636.13;;;12.88;93.79
51928;BME280;37953;52.806;18.270;2023-04-25T12:28:25;99631.75;;;12.90;95.53
51928;BME280;37953;52.806;18.270;2023-04-25T12:30:59;99624.75;;;12.93;96.08
51928;BME280;37953;52.806;18.270;2023-04-25T12:33:34;99633.31;;;12.97;98.57
51928;BME280;37953;52.806;18.270;2023-04-25T12:36:02;99629.84;;;12.98;92.65
51928;BME280;37953;52.806;18.270;2023-04-25T12:38:43;99632.34;;;13.04;92.86
51928;BME280;37953;52.806;18.270;2023-04-25T12:41:09;99627.06;;;13.06;92.42
51928;BME280;37953;52.806;18.270;2023-04-25T12:43:35;99627.00;;;13.09;93.51
51928;BME280;37953;52.806;18.270;2023-04-25T12:46:01;99633.91;;;13.11;94.41
51928;BME280;37953;52.806;18.270;2023-04-25T12:48:27;99639.09;;;13.13;94.30
51928;BME280;37953;52.806;18.270;2023-04-25T12:50:53;99629.50;;;13.15;93.50
51928;BME280;37953;52.806;18.270;2023-04-25T12:53:21;99620.75;;;13.16;94.02
51928;BME280;37953;52.806;18.270;2023-04-25T12:55:47;99632.00;;;13.19;93.70
51928;BME280;37953;52.806;18.270;2023-04-25T12:58:15;99631.09;;;13.20;91.45
51928;BME280;37953;52.806;18.270;2023-04-25T13:00:41;99619.81;;;13.20;90.87
51928;BME280;37953;52.806;18.270;2023-04-25T13:03:08;99629.41;;;13.19;92.33
51928;BME280;37953;52.806;18.270;2023-04-25T13:05:34;99626.88;;;13.15;92.35
51928;BME280;37953;52.806;18.270;2023-04-25T13:08:01;99630.25;;;13.20;93.90
51928;BME280;37953;52.806;18.270;2023-04-25T13:10:27;99632.03;;;13.18;91.91
51928;BME280;37953;52.806;18.270;2023-04-25T13:12:53;99628.56;;;13.17;90.62
51928;BME280;37953;52.806;18.270;2023-04-25T13:15:19;99626.84;;;13.16;92.38
51928;BME280;37953;52.806;18.270;2023-04-25T13:17:45;99630.31;;;13.17;90.52
51928;BME280;37953;52.806;18.270;2023-04-25T13:20:11;99624.19;;;13.18;91.33
51928;BME280;37953;52.806;18.270;2023-04-25T13:22:40;99621.53;;;13.21;91.07
51928;BME280;37953;52.806;18.270;2023-04-25T13:25:07;99626.69;;;13.24;91.33
51928;BME280;37953;52.806;18.270;2023-04-25T13:27:35;99627.59;;;13.23;87.66
51928;BME280;37953;52.806;18.270;2023-04-25T13:30:02;99629.22;;;13.29;88.42
51928;BME280;37953;52.806;18.270;2023-04-25T13:32:34;99631.81;;;13.30;87.73
51928;BME280;37953;52.806;18.270;2023-04-25T13:35:10;99627.31;;;13.35;89.18
51928;BME280;37953;52.806;18.270;2023-04-25T13:37:39;99624.66;;;13.38;89.20
51928;BME280;37953;52.806;18.270;2023-04-25T13:40:07;99628.13;;;13.39;88.55
51928;BME280;37953;52.806;18.270;2023-04-25T13:42:39;99624.56;;;13.43;89.17
51928;BME280;37953;52.806;18.270;2023-04-25T13:45:06;99625.41;;;13.43;88.77
51928;BME280;37953;52.806;18.270;2023-04-25T13:47:34;99631.44;;;13.46;91.36
51928;BME280;37953;52.806;18.270;2023-04-25T13:49:59;99628.81;;;13.47;91.18
51928;BME280;37953;52.806;18.270;2023-04-25T13:52:28;99628.81;;;13.47;88.68